sensor_id;sensor_type;location;lat;lon;timestamp;temperature;humidity
21712;DHT22;11017;53.552;9.910;2023-05-14T00:01:53;16.30;99.90
21712;DHT22;11017;53.552;9.910;2023-05-14T00:04:20;16.30;99.90
21712;DHT22;11017;53.552;9.910;2023-05-14T00:06:48;16.30;99.90
21712;DHT22;11017;53.552;9.910;2023-05-14T00:09:14;16.30;99.90
21712;DHT22;11017;53.552;9.910;2023-05-14T00:11:41;16.30;99.90
21712;DHT22;11017;53.552;9.910;2023-05-14T00:14:08;16.30;99.90
21712;DHT22;11017;53.552;9.910;2023-05-14T00:16:35;16.20;99.90
21712;DHT22;11017;53.552;9.910;2023-05-14T00:19:03;16.20;99.90
21712;DHT22;11017;53.552;9.910;2023-05-14T00:21:30;16.10;99.90
21712;DHT22;11017;53.552;9.910;2023-05-14T00:23:57;16.10;99.90
21712;DHT22;11017;53.552;9.910;2023-05-14T00:26:24;15.90;99.90
21712;DHT22;11017;53.552;9.910;2023-05-14T00:28:51;16.00;99.90
21712;DHT22;11017;53.552;9.910;2023-05-14T00:31:18;16.00;99.90
21712;DHT22;11017;53.552;9.910;2023-05-14T00:33:44;16.00;99.90
21712;DHT22;11017;53.552;9.910;2023-05-14T00:36:13;15.80;99.90
21712;DHT22;11017;53.552;9.910;2023-05-14T00:38:39;15.70;99.90
21712;DHT22;11017;53.552;9.910;2023-05-14T00:41:06;15.60;99.90
21712;DHT22;11017;53.552;9.910;2023-05-14T00:43:33;15.60;99.90
21712;DHT22;11017;53.552;9.910;2023-05-14T00:46:00;15.40;99.90
21712;DHT22;11017;53.552;9.910;2023-05-14T00:48:27;15.30;99.90
21712;DHT22;11017;53.552;9.910;2023-05-14T00:50:55;15.20;99.90
21712;DHT22;11017;53.552;9.910;2023-05-14T00:53:23;15.20;99.90
21712;DHT22;11017;53.552;9.910;2023-05-14T00:55:51;15.30;99.90
21712;DHT22;11017;53.552;9.910;2023-05-14T00:58:18;15.30;99.90
21712;DHT22;11017;53.552;9.910;2023-05-14T01:00:45;15.30;99.90
21712;DHT22;11017;53.552;9.910;2023-05-14T01:03:12;15.20;99.90
21712;DHT22;11017;53.552;9.910;2023-05-14T01:05:42;15.20;99.90
21712;DHT22;11017;53.552;9.910;2023-05-14T01:08:20;15.20;99.90
21712;DHT22;11017;53.552;9.910;2023-05-14T01:10:56;15.20;99.90
21712;DHT22;11017;53.552;9.910;2023-05-14T01:13:27;15.00;99.90
21712;DHT22;11017;53.552;9.910;2023-05-14T01:15:57;15.00;99.90
21712;DHT22;11017;53.552;9.910;2023-05-14T01:18:27;15.00;99.90
21712;DHT22;11017;53.552;9.910;2023-05-14T01:20:54;15.00;99.90
21712;DHT22;11017;53.552;9.910;2023-05-14T01:23:22;14.80;99.90
21712;DHT22;11017;53.552;9.910;2023-05-14T01:25:49;15.00;99.90
21712;DHT22;11017;53.552;9.910;2023-05-14T01:28:17;15.00;99.90
21712;DHT22;11017;53.552;9.910;2023-05-14T01:30:48;15.00;99.90
21712;DHT22;11017;53.552;9.910;2023-05-14T01:33:16;15.00;99.90
21712;DHT22;11017;53.552;9.910;2023-05-14T01:35:44;15.00;99.90
21712;DHT22;11017;53.552;9.910;2023-05-14T01:38:14;15.00;99.90
21712;DHT22;11017;53.552;9.910;2023-05-14T01:40:44;15.10;99.90
21712;DHT22;11017;53.552;9.910;2023-05-14T01:43:12;15.10;99.90
21712;DHT22;11017;53.552;9.910;2023-05-14T01:45:39;15.10;99.90
21712;DHT22;11017;53.552;9.910;2023-05-14T01:48:07;15.10;99.90
21712;DHT22;11017;53.552;9.910;2023-05-14T01:50:33;15.00;99.90
21712;DHT22;11017;53.552;9.910;2023-05-14T01:53:00;15.00;99.90
21712;DHT22;11017;53.552;9.910;2023-05-14T01:55:27;15.00;99.90
21712;DHT22;11017;53.552;9.910;2023-05-14T01:57:55;14.90;99.90
21712;DHT22;11017;53.552;9.910;2023-05-14T02:00:23;14.90;99.90
21712;DHT22;11017;53.552;9.910;2023-05-14T02:02:50;15.00;99.90
21712;DHT22;11017;53.552;9.910;2023-05-14T02:05:18;14.90;99.90
21712;DHT22;11017;53.552;9.910;2023-05-14T02:07:44;14.80;99.90
21712;DHT22;11017;53.552;9.910;2023-05-14T02:10:11;14.90;99.90
21712;DHT22;11017;53.552;9.910;2023-05-14T02:12:38;14.90;99.90
21712;DHT22;11017;53.552;9.910;2023-05-14T02:15:08;14.90;99.90
21712;DHT22;11017;53.552;9.910;2023-05-14T02:17:35;14.90;99.90
21712;DHT22;11017;53.552;9.910;2023-05-14T02:20:03;14.90;99.90
21712;DHT22;11017;53.552;9.910;2023-05-14T02:22:29;14.70;99.90
21712;DHT22;11017;53.552;9.910;2023-05-14T02:24:56;14.70;99.90
21712;DHT22;11017;53.552;9.910;2023-05-14T02:27:23;14.60;99.90
21712;DHT22;11017;53.552;9.910;2023-05-14T02:29:50;14.60;99.90
21712;DHT22;11017;53.552;9.910;2023-05-14T02:32:18;14.60;99.90
21712;DHT22;11017;53.552;9.910;2023-05-14T02:34:45;14.70;99.90
21712;DHT22;11017;53.552;9.910;2023-05-14T02:37:12;14.70;99.90
21712;DHT22;11017;53.552;9.910;2023-05-14T02:39:39;14.70;99.90
21712;DHT22;11017;53.552;9.910;2023-05-14T02:42:06;14.50;99.90
21712;DHT22;11017;53.552;9.910;2023-05-14T02:44:33;14.40;99.90
21712;DHT22;11017;53.552;9.910;2023-05-14T02:47:00;14.20;99.90
21712;DHT22;11017;53.552;9.910;2023-05-14T02:49:28;14.20;99.90
21712;DHT22;11017;53.552;9.910;2023-05-14T02:51:55;14.10;99.90
21712;DHT22;11017;53.552;9.910;2023-05-14T02:54:22;14.00;99.90
21712;DHT22;11017;53.552;9.910;2023-05-14T02:56:49;14.10;99.90
21712;DHT22;11017;53.552;9.910;2023-05-14T02:59:15;14.00;99.90
21712;DHT22;11017;53.552;9.910;2023-05-14T03:01:42;14.00;99.90
21712;DHT22;11017;53.552;9.910;2023-05-14T03:04:09;14.00;99.90
21712;DHT22;11017;53.552;9.910;2023-05-14T03:06:37;14.10;99.90
21712;DHT22;11017;53.552;9.910;2023-05-14T03:09:04;14.10;99.90
21712;DHT22;11017;53.552;9.910;2023-05-14T03:11:32;14.00;99.90
21712;DHT22;11017;53.552;9.910;2023-05-14T03:13:58;13.90;99.90
21712;DHT22;11017;53.552;9.910;2023-05-14T03:16:25;13.90;99.90
21712;DHT22;11017;53.552;9.910;2023-05-14T03:18:52;13.90;99.90
21712;DHT22;11017;53.552;9.910;2023-05-14T03:21:19;13.80;99.90
21712;DHT22;11017;53.552;9.910;2023-05-14T03:23:47;13.80;99.90
21712;DHT22;11017;53.552;9.910;2023-05-14T03:26:14;13.80;99.90
21712;DHT22;11017;53.552;9.910;2023-05-14T03:28:41;13.80;99.90
21712;DHT22;11017;53.552;9.910;2023-05-14T03:31:08;13.70;99.90
21712;DHT22;11017;53.552;9.910;2023-05-14T03:33:35;13.70;99.90
21712;DHT22;11017;53.552;9.910;2023-05-14T03:36:02;13.80;99.90
21712;DHT22;11017;53.552;9.910;2023-05-14T03:38:29;14.00;99.90
21712;DHT22;11017;53.552;9.910;2023-05-14T03:40:57;14.10;99.90
21712;DHT22;11017;53.552;9.910;2023-05-14T03:43:24;14.20;99.90
21712;DHT22;11017;53.552;9.910;2023-05-14T03:45:51;14.30;99.90
21712;DHT22;11017;53.552;9.910;2023-05-14T03:48:18;14.20;99.90
21712;DHT22;11017;53.552;9.910;2023-05-14T03:50:45;14.10;99.90
21712;DHT22;11017;53.552;9.910;2023-05-14T03:53:11;14.10;99.90
21712;DHT22;11017;53.552;9.910;2023-05-14T03:55:38;14.20;99.90
21712;DHT22;11017;53.552;9.910;2023-05-14T03:58:06;14.20;99.90
21712;DHT22;11017;53.552;9.910;2023-05-14T04:00:39;14.10;99.90
21712;DHT22;11017;53.552;9.910;2023-05-14T04:03:05;13.90;99.90
21712;DHT22;11017;53.552;9.910;2023-05-14T04:05:32;13.80;99.90
21712;DHT22;11017;53.552;9.910;2023-05-14T04:07:59;13.90;99.90
21712;DHT22;11017;53.552;9.910;2023-05-14T04:10:26;13.90;99.90
21712;DHT22;11017;53.552;9.910;2023-05-14T04:12:53;13.90;99.90
21712;DHT22;11017;53.552;9.910;2023-05-14T04:15:22;14.00;99.90
21712;DHT22;11017;53.552;9.910;2023-05-14T04:17:49;14.00;99.90
21712;DHT22;11017;53.552;9.910;2023-05-14T04:20:16;14.10;99.90
21712;DHT22;11017;53.552;9.910;2023-05-14T04:22:43;14.00;99.90
21712;DHT22;11017;53.552;9.910;2023-05-14T04:25:10;14.00;99.90
21712;DHT22;11017;53.552;9.910;2023-05-14T04:27:36;14.00;99.90
21712;DHT22;11017;53.552;9.910;2023-05-14T04:30:04;14.10;99.90
21712;DHT22;11017;53.552;9.910;2023-05-14T04:32:34;14.00;99.90
21712;DHT22;11017;53.552;9.910;2023-05-14T04:35:01;13.90;99.90
21712;DHT22;11017;53.552;9.910;2023-05-14T04:37:28;13.90;99.90
21712;DHT22;11017;53.552;9.910;2023-05-14T04:39:55;13.90;99.90
21712;DHT22;11017;53.552;9.910;2023-05-14T04:42:22;14.00;99.90
21712;DHT22;11017;53.552;9.910;2023-05-14T04:44:50;14.00;99.90
21712;DHT22;11017;53.552;9.910;2023-05-14T04:47:17;14.20;99.90
21712;DHT22;11017;53.552;9.910;2023-05-14T04:49:45;14.10;99.90
21712;DHT22;11017;53.552;9.910;2023-05-14T04:52:12;14.20;99.90
21712;DHT22;11017;53.552;9.910;2023-05-14T04:54:39;14.20;99.90
21712;DHT22;11017;53.552;9.910;2023-05-14T04:57:06;14.20;99.90
21712;DHT22;11017;53.552;9.910;2023-05-14T04:59:33;14.30;99.90
21712;DHT22;11017;53.552;9.910;2023-05-14T05:02:00;14.40;99.90
21712;DHT22;11017;53.552;9.910;2023-05-14T05:04:26;14.40;99.90
21712;DHT22;11017;53.552;9.910;2023-05-14T05:06:55;14.60;99.90
21712;DHT22;11017;53.552;9.910;2023-05-14T05:09:21;14.60;99.90
21712;DHT22;11017;53.552;9.910;2023-05-14T05:11:48;14.50;99.90
21712;DHT22;11017;53.552;9.910;2023-05-14T05:14:15;14.40;99.90
21712;DHT22;11017;53.552;9.910;2023-05-14T05:16:42;14.50;99.90
21712;DHT22;11017;53.552;9.910;2023-05-14T05:19:09;14.60;99.90
21712;DHT22;11017;53.552;9.910;2023-05-14T05:21:37;14.70;99.90
21712;DHT22;11017;53.552;9.910;2023-05-14T05:24:06;14.60;99.90
21712;DHT22;11017;53.552;9.910;2023-05-14T05:26:33;14.70;99.90
21712;DHT22;11017;53.552;9.910;2023-05-14T05:29:01;14.70;99.90
21712;DHT22;11017;53.552;9.910;2023-05-14T05:31:28;14.80;99.90
21712;DHT22;11017;53.552;9.910;2023-05-14T05:33:56;14.90;99.90
21712;DHT22;11017;53.552;9.910;2023-05-14T05:36:23;14.80;99.90
21712;DHT22;11017;53.552;9.910;2023-05-14T05:38:49;15.00;99.90
21712;DHT22;11017;53.552;9.910;2023-05-14T05:41:18;15.00;99.90
21712;DHT22;11017;53.552;9.910;2023-05-14T05:43:45;15.10;99.90
21712;DHT22;11017;53.552;9.910;2023-05-14T05:46:11;15.10;99.90
21712;DHT22;11017;53.552;9.910;2023-05-14T05:48:38;15.10;99.90
21712;DHT22;11017;53.552;9.910;2023-05-14T05:51:05;15.40;99.90
21712;DHT22;11017;53.552;9.910;2023-05-14T05:53:32;15.20;99.90
21712;DHT22;11017;53.552;9.910;2023-05-14T05:55:59;15.10;99.90
21712;DHT22;11017;53.552;9.910;2023-05-14T05:58:27;15.20;99.90
21712;DHT22;11017;53.552;9.910;2023-05-14T06:01:00;15.30;99.90
21712;DHT22;11017;53.552;9.910;2023-05-14T06:03:27;15.30;99.90
21712;DHT22;11017;53.552;9.910;2023-05-14T06:05:57;15.30;99.90
21712;DHT22;11017;53.552;9.910;2023-05-14T06:08:35;15.60;99.90
21712;DHT22;11017;53.552;9.910;2023-05-14T06:11:03;15.60;99.90
21712;DHT22;11017;53.552;9.910;2023-05-14T06:13:31;15.60;99.90
21712;DHT22;11017;53.552;9.910;2023-05-14T06:16:04;15.60;99.90
21712;DHT22;11017;53.552;9.910;2023-05-14T06:18:31;15.50;99.90
21712;DHT22;11017;53.552;9.910;2023-05-14T06:20:58;15.70;99.90
21712;DHT22;11017;53.552;9.910;2023-05-14T06:23:25;15.90;99.90
21712;DHT22;11017;53.552;9.910;2023-05-14T06:25:54;16.10;99.90
21712;DHT22;11017;53.552;9.910;2023-05-14T06:28:21;16.20;99.90
21712;DHT22;11017;53.552;9.910;2023-05-14T06:31:00;16.30;99.90
21712;DHT22;11017;53.552;9.910;2023-05-14T06:33:31;16.50;99.90
21712;DHT22;11017;53.552;9.910;2023-05-14T06:36:03;16.50;99.90
21712;DHT22;11017;53.552;9.910;2023-05-14T06:38:32;16.60;99.90
21712;DHT22;11017;53.552;9.910;2023-05-14T06:41:04;16.60;99.90
21712;DHT22;11017;53.552;9.910;2023-05-14T06:43:32;16.90;99.90
21712;DHT22;11017;53.552;9.910;2023-05-14T06:46:00;17.10;99.90
21712;DHT22;11017;53.552;9.910;2023-05-14T06:48:45;17.40;99.90
21712;DHT22;11017;53.552;9.910;2023-05-14T06:51:12;17.50;99.90
21712;DHT22;11017;53.552;9.910;2023-05-14T06:53:40;17.40;99.90
21712;DHT22;11017;53.552;9.910;2023-05-14T06:56:08;17.50;99.90
21712;DHT22;11017;53.552;9.910;2023-05-14T06:58:35;17.60;99.90
21712;DHT22;11017;53.552;9.910;2023-05-14T07:01:13;17.70;99.90
21712;DHT22;11017;53.552;9.910;2023-05-14T07:03:40;17.90;99.90
21712;DHT22;11017;53.552;9.910;2023-05-14T07:06:09;18.00;99.90
21712;DHT22;11017;53.552;9.910;2023-05-14T07:08:36;17.80;99.90
21712;DHT22;11017;53.552;9.910;2023-05-14T07:11:03;17.90;99.90
21712;DHT22;11017;53.552;9.910;2023-05-14T07:13:30;18.00;99.90
21712;DHT22;11017;53.552;9.910;2023-05-14T07:15:57;18.10;99.90
21712;DHT22;11017;53.552;9.910;2023-05-14T07:18:33;18.10;99.90
21712;DHT22;11017;53.552;9.910;2023-05-14T07:21:03;18.30;99.90
21712;DHT22;11017;53.552;9.910;2023-05-14T07:23:33;18.30;99.90
21712;DHT22;11017;53.552;9.910;2023-05-14T07:26:01;18.20;99.90
21712;DHT22;11017;53.552;9.910;2023-05-14T07:28:28;18.30;99.90
21712;DHT22;11017;53.552;9.910;2023-05-14T07:30:55;18.70;99.90
21712;DHT22;11017;53.552;9.910;2023-05-14T07:33:25;18.90;99.90
21712;DHT22;11017;53.552;9.910;2023-05-14T07:35:52;19.10;99.90
21712;DHT22;11017;53.552;9.910;2023-05-14T07:38:21;19.30;99.90
21712;DHT22;11017;53.552;9.910;2023-05-14T07:40:56;19.70;99.90
21712;DHT22;11017;53.552;9.910;2023-05-14T07:43:26;20.00;99.90
21712;DHT22;11017;53.552;9.910;2023-05-14T07:45:56;20.00;99.90
21712;DHT22;11017;53.552;9.910;2023-05-14T07:48:24;20.20;99.90
21712;DHT22;11017;53.552;9.910;2023-05-14T07:50:51;20.60;99.90
21712;DHT22;11017;53.552;9.910;2023-05-14T07:53:18;20.40;99.90
21712;DHT22;11017;53.552;9.910;2023-05-14T07:55:45;20.70;99.90
21712;DHT22;11017;53.552;9.910;2023-05-14T07:58:14;20.20;99.90
21712;DHT22;11017;53.552;9.910;2023-05-14T08:00:43;20.30;99.90
21712;DHT22;11017;53.552;9.910;2023-05-14T08:03:10;20.40;99.90
21712;DHT22;11017;53.552;9.910;2023-05-14T08:05:40;20.60;99.90
21712;DHT22;11017;53.552;9.910;2023-05-14T08:08:10;20.70;99.90
21712;DHT22;11017;53.552;9.910;2023-05-14T08:10:37;20.60;99.90
21712;DHT22;11017;53.552;9.910;2023-05-14T08:13:07;20.80;99.90
21712;DHT22;11017;53.552;9.910;2023-05-14T08:15:34;21.20;99.90
21712;DHT22;11017;53.552;9.910;2023-05-14T08:18:03;21.20;99.90
21712;DHT22;11017;53.552;9.910;2023-05-14T08:20:30;21.10;99.90
21712;DHT22;11017;53.552;9.910;2023-05-14T08:22:58;21.50;99.90
21712;DHT22;11017;53.552;9.910;2023-05-14T08:25:26;21.60;99.90
21712;DHT22;11017;53.552;9.910;2023-05-14T08:27:52;21.50;99.90
21712;DHT22;11017;53.552;9.910;2023-05-14T08:30:19;21.50;99.90
21712;DHT22;11017;53.552;9.910;2023-05-14T08:32:48;21.50;99.90
21712;DHT22;11017;53.552;9.910;2023-05-14T08:35:16;21.60;99.90
21712;DHT22;11017;53.552;9.910;2023-05-14T08:37:43;21.90;99.90
21712;DHT22;11017;53.552;9.910;2023-05-14T08:40:12;21.80;99.90
21712;DHT22;11017;53.552;9.910;2023-05-14T08:42:39;21.70;99.90
21712;DHT22;11017;53.552;9.910;2023-05-14T08:45:10;21.90;99.90
21712;DHT22;11017;53.552;9.910;2023-05-14T08:47:40;22.10;99.90
21712;DHT22;11017;53.552;9.910;2023-05-14T08:50:08;22.10;99.70
21712;DHT22;11017;53.552;9.910;2023-05-14T08:52:35;21.90;99.10
21712;DHT22;11017;53.552;9.910;2023-05-14T08:55:04;22.30;98.70
21712;DHT22;11017;53.552;9.910;2023-05-14T08:57:33;23.10;98.60
21712;DHT22;11017;53.552;9.910;2023-05-14T09:00:01;23.90;98.00
21712;DHT22;11017;53.552;9.910;2023-05-14T09:02:34;24.60;95.30
21712;DHT22;11017;53.552;9.910;2023-05-14T09:05:02;25.20;94.40
21712;DHT22;11017;53.552;9.910;2023-05-14T09:07:29;25.60;92.00
21712;DHT22;11017;53.552;9.910;2023-05-14T09:09:56;25.40;91.80
21712;DHT22;11017;53.552;9.910;2023-05-14T09:12:23;25.30;91.20
21712;DHT22;11017;53.552;9.910;2023-05-14T09:14:52;25.00;90.60
21712;DHT22;11017;53.552;9.910;2023-05-14T09:17:19;25.70;90.50
21712;DHT22;11017;53.552;9.910;2023-05-14T09:19:46;26.50;89.50
21712;DHT22;11017;53.552;9.910;2023-05-14T09:22:15;26.50;83.40
21712;DHT22;11017;53.552;9.910;2023-05-14T09:24:42;26.90;83.20
21712;DHT22;11017;53.552;9.910;2023-05-14T09:27:17;27.30;82.10
21712;DHT22;11017;53.552;9.910;2023-05-14T09:29:44;27.40;82.70
21712;DHT22;11017;53.552;9.910;2023-05-14T09:32:13;27.40;77.90
21712;DHT22;11017;53.552;9.910;2023-05-14T09:34:40;27.20;77.90
21712;DHT22;11017;53.552;9.910;2023-05-14T09:37:08;28.00;76.80
21712;DHT22;11017;53.552;9.910;2023-05-14T09:39:36;27.00;77.10
21712;DHT22;11017;53.552;9.910;2023-05-14T09:42:04;27.70;78.70
21712;DHT22;11017;53.552;9.910;2023-05-14T09:44:31;28.60;72.60
21712;DHT22;11017;53.552;9.910;2023-05-14T09:46:58;29.00;70.60
21712;DHT22;11017;53.552;9.910;2023-05-14T09:49:26;29.40;73.40
21712;DHT22;11017;53.552;9.910;2023-05-14T09:51:53;30.10;72.60
21712;DHT22;11017;53.552;9.910;2023-05-14T09:54:23;30.70;66.50
21712;DHT22;11017;53.552;9.910;2023-05-14T09:56:50;30.80;66.60
21712;DHT22;11017;53.552;9.910;2023-05-14T09:59:20;29.30;65.00
21712;DHT22;11017;53.552;9.910;2023-05-14T10:01:50;28.90;64.00
21712;DHT22;11017;53.552;9.910;2023-05-14T10:04:18;29.30;66.20
21712;DHT22;11017;53.552;9.910;2023-05-14T10:06:49;29.50;64.20
21712;DHT22;11017;53.552;9.910;2023-05-14T10:09:19;29.70;65.10
21712;DHT22;11017;53.552;9.910;2023-05-14T10:11:52;28.50;62.40
21712;DHT22;11017;53.552;9.910;2023-05-14T10:14:34;28.10;63.60
21712;DHT22;11017;53.552;9.910;2023-05-14T10:17:02;28.10;63.90
21712;DHT22;11017;53.552;9.910;2023-05-14T10:19:33;27.60;62.20
21712;DHT22;11017;53.552;9.910;2023-05-14T10:22:06;27.00;63.40
21712;DHT22;11017;53.552;9.910;2023-05-14T10:24:33;26.50;68.00
21712;DHT22;11017;53.552;9.910;2023-05-14T10:27:03;26.50;64.70
21712;DHT22;11017;53.552;9.910;2023-05-14T10:29:32;25.60;65.10
21712;DHT22;11017;53.552;9.910;2023-05-14T10:32:03;25.20;65.10
21712;DHT22;11017;53.552;9.910;2023-05-14T10:34:32;24.30;65.40
21712;DHT22;11017;53.552;9.910;2023-05-14T10:37:02;24.30;67.50
21712;DHT22;11017;53.552;9.910;2023-05-14T10:39:42;24.60;66.50
21712;DHT22;11017;53.552;9.910;2023-05-14T10:42:11;26.20;65.60
21712;DHT22;11017;53.552;9.910;2023-05-14T10:44:43;26.60;64.70
21712;DHT22;11017;53.552;9.910;2023-05-14T10:47:12;26.50;64.30
21712;DHT22;11017;53.552;9.910;2023-05-14T10:49:40;25.80;64.50
21712;DHT22;11017;53.552;9.910;2023-05-14T10:52:09;26.00;65.20
21712;DHT22;11017;53.552;9.910;2023-05-14T10:54:37;25.90;65.80
21712;DHT22;11017;53.552;9.910;2023-05-14T10:57:10;26.80;65.00
21712;DHT22;11017;53.552;9.910;2023-05-14T10:59:41;27.50;63.20
21712;DHT22;11017;53.552;9.910;2023-05-14T11:02:18;27.10;63.00
21712;DHT22;11017;53.552;9.910;2023-05-14T11:04:58;27.30;63.10
21712;DHT22;11017;53.552;9.910;2023-05-14T11:07:30;28.20;61.90
21712;DHT22;11017;53.552;9.910;2023-05-14T11:10:04;27.90;61.90
21712;DHT22;11017;53.552;9.910;2023-05-14T11:12:31;27.80;60.90
21712;DHT22;11017;53.552;9.910;2023-05-14T11:14:59;27.70;61.90
21712;DHT22;11017;53.552;9.910;2023-05-14T11:17:28;27.10;62.90
21712;DHT22;11017;53.552;9.910;2023-05-14T11:19:55;27.00;63.20
21712;DHT22;11017;53.552;9.910;2023-05-14T11:22:23;26.90;63.90
21712;DHT22;11017;53.552;9.910;2023-05-14T11:24:51;26.60;63.80
21712;DHT22;11017;53.552;9.910;2023-05-14T11:27:20;25.60;63.70
21712;DHT22;11017;53.552;9.910;2023-05-14T11:29:48;26.20;65.20
21712;DHT22;11017;53.552;9.910;2023-05-14T11:32:15;27.30;63.90
21712;DHT22;11017;53.552;9.910;2023-05-14T11:34:43;26.80;63.60
21712;DHT22;11017;53.552;9.910;2023-05-14T11:37:11;26.70;64.50
21712;DHT22;11017;53.552;9.910;2023-05-14T11:39:39;26.50;64.20
21712;DHT22;11017;53.552;9.910;2023-05-14T11:42:12;26.70;64.90
21712;DHT22;11017;53.552;9.910;2023-05-14T11:44:42;27.10;62.90
21712;DHT22;11017;53.552;9.910;2023-05-14T11:47:10;27.10;62.90
21712;DHT22;11017;53.552;9.910;2023-05-14T11:49:37;28.90;64.80
21712;DHT22;11017;53.552;9.910;2023-05-14T11:52:05;29.50;61.80
21712;DHT22;11017;53.552;9.910;2023-05-14T11:54:33;30.30;62.30
21712;DHT22;11017;53.552;9.910;2023-05-14T11:57:01;29.90;60.00
21712;DHT22;11017;53.552;9.910;2023-05-14T11:59:31;29.50;61.50
21712;DHT22;11017;53.552;9.910;2023-05-14T12:01:58;28.40;59.50
21712;DHT22;11017;53.552;9.910;2023-05-14T12:04:25;28.00;59.90
21712;DHT22;11017;53.552;9.910;2023-05-14T12:06:52;28.30;60.00
21712;DHT22;11017;53.552;9.910;2023-05-14T12:09:20;29.50;60.40
21712;DHT22;11017;53.552;9.910;2023-05-14T12:11:48;29.90;59.70
21712;DHT22;11017;53.552;9.910;2023-05-14T12:14:17;29.40;59.30
21712;DHT22;11017;53.552;9.910;2023-05-14T12:16:46;29.00;59.40
21712;DHT22;11017;53.552;9.910;2023-05-14T12:19:14;29.40;59.60
21712;DHT22;11017;53.552;9.910;2023-05-14T12:21:42;29.00;60.60
21712;DHT22;11017;53.552;9.910;2023-05-14T12:24:11;29.80;58.60
21712;DHT22;11017;53.552;9.910;2023-05-14T12:26:38;29.90;57.20
21712;DHT22;11017;53.552;9.910;2023-05-14T12:29:05;29.80;58.80
21712;DHT22;11017;53.552;9.910;2023-05-14T12:31:33;30.50;57.50
21712;DHT22;11017;53.552;9.910;2023-05-14T12:34:02;30.70;57.10
21712;DHT22;11017;53.552;9.910;2023-05-14T12:36:29;30.10;56.50
21712;DHT22;11017;53.552;9.910;2023-05-14T12:38:58;30.10;58.20
21712;DHT22;11017;53.552;9.910;2023-05-14T12:41:26;30.60;58.40
21712;DHT22;11017;53.552;9.910;2023-05-14T12:43:53;31.00;57.50
21712;DHT22;11017;53.552;9.910;2023-05-14T12:46:20;30.40;57.10
21712;DHT22;11017;53.552;9.910;2023-05-14T12:48:46;30.30;58.20
21712;DHT22;11017;53.552;9.910;2023-05-14T12:51:15;30.40;56.70
21712;DHT22;11017;53.552;9.910;2023-05-14T12:53:42;30.90;56.30
21712;DHT22;11017;53.552;9.910;2023-05-14T12:56:09;30.70;56.90
21712;DHT22;11017;53.552;9.910;2023-05-14T12:58:36;30.60;55.60
21712;DHT22;11017;53.552;9.910;2023-05-14T13:01:03;29.40;55.80
21712;DHT22;11017;53.552;9.910;2023-05-14T13:03:30;28.50;57.00
21712;DHT22;11017;53.552;9.910;2023-05-14T13:05:58;27.80;57.00
21712;DHT22;11017;53.552;9.910;2023-05-14T13:08:27;27.80;56.80
21712;DHT22;11017;53.552;9.910;2023-05-14T13:10:54;27.60;57.10
21712;DHT22;11017;53.552;9.910;2023-05-14T13:13:22;28.20;57.60
21712;DHT22;11017;53.552;9.910;2023-05-14T13:15:49;29.30;57.10
21712;DHT22;11017;53.552;9.910;2023-05-14T13:18:17;29.50;57.00
21712;DHT22;11017;53.552;9.910;2023-05-14T13:20:44;30.00;55.90
21712;DHT22;11017;53.552;9.910;2023-05-14T13:23:11;30.20;56.10
21712;DHT22;11017;53.552;9.910;2023-05-14T13:25:40;29.70;55.80
21712;DHT22;11017;53.552;9.910;2023-05-14T13:28:07;30.00;55.60
21712;DHT22;11017;53.552;9.910;2023-05-14T13:30:34;29.40;56.20
21712;DHT22;11017;53.552;9.910;2023-05-14T13:33:01;29.40;56.60
21712;DHT22;11017;53.552;9.910;2023-05-14T13:35:28;28.80;57.10
21712;DHT22;11017;53.552;9.910;2023-05-14T13:37:55;28.10;57.40
21712;DHT22;11017;53.552;9.910;2023-05-14T13:40:22;28.20;58.30
21712;DHT22;11017;53.552;9.910;2023-05-14T13:42:50;27.40;57.50
21712;DHT22;11017;53.552;9.910;2023-05-14T13:45:17;27.20;57.60
21712;DHT22;11017;53.552;9.910;2023-05-14T13:47:44;26.60;57.30
21712;DHT22;11017;53.552;9.910;2023-05-14T13:50:11;27.60;57.20
21712;DHT22;11017;53.552;9.910;2023-05-14T13:52:38;27.90;57.40
21712;DHT22;11017;53.552;9.910;2023-05-14T13:55:06;28.10;57.10
21712;DHT22;11017;53.552;9.910;2023-05-14T13:57:33;29.10;57.60
21712;DHT22;11017;53.552;9.910;2023-05-14T14:00:01;29.80;55.60
21712;DHT22;11017;53.552;9.910;2023-05-14T14:02:29;29.50;55.90
21712;DHT22;11017;53.552;9.910;2023-05-14T14:04:56;30.60;55.60
21712;DHT22;11017;53.552;9.910;2023-05-14T14:07:23;30.20;55.40
21712;DHT22;11017;53.552;9.910;2023-05-14T14:09:50;29.70;56.20
21712;DHT22;11017;53.552;9.910;2023-05-14T14:12:16;29.60;56.10
21712;DHT22;11017;53.552;9.910;2023-05-14T14:14:43;29.10;54.30
21712;DHT22;11017;53.552;9.910;2023-05-14T14:17:11;29.30;54.70
21712;DHT22;11017;53.552;9.910;2023-05-14T14:19:38;29.80;54.30
21712;DHT22;11017;53.552;9.910;2023-05-14T14:22:05;29.60;53.80
21712;DHT22;11017;53.552;9.910;2023-05-14T14:24:32;29.80;54.00
21712;DHT22;11017;53.552;9.910;2023-05-14T14:26:59;29.70;54.10
21712;DHT22;11017;53.552;9.910;2023-05-14T14:29:26;30.00;54.30
21712;DHT22;11017;53.552;9.910;2023-05-14T14:31:55;30.20;53.40
21712;DHT22;11017;53.552;9.910;2023-05-14T14:34:24;30.50;53.60
21712;DHT22;11017;53.552;9.910;2023-05-14T14:36:50;30.80;53.00
21712;DHT22;11017;53.552;9.910;2023-05-14T14:39:17;31.60;53.70
21712;DHT22;11017;53.552;9.910;2023-05-14T14:41:44;31.10;52.60
21712;DHT22;11017;53.552;9.910;2023-05-14T14:44:12;30.60;52.80
21712;DHT22;11017;53.552;9.910;2023-05-14T14:46:39;31.20;53.20
21712;DHT22;11017;53.552;9.910;2023-05-14T14:49:07;30.00;53.20
21712;DHT22;11017;53.552;9.910;2023-05-14T14:51:35;30.60;53.50
21712;DHT22;11017;53.552;9.910;2023-05-14T14:54:02;30.10;53.10
21712;DHT22;11017;53.552;9.910;2023-05-14T14:56:30;29.30;54.00
21712;DHT22;11017;53.552;9.910;2023-05-14T14:58:57;28.60;54.10
21712;DHT22;11017;53.552;9.910;2023-05-14T15:01:24;28.80;53.80
21712;DHT22;11017;53.552;9.910;2023-05-14T15:03:51;29.10;54.20
21712;DHT22;11017;53.552;9.910;2023-05-14T15:06:18;29.20;53.70
21712;DHT22;11017;53.552;9.910;2023-05-14T15:08:46;29.20;53.50
21712;DHT22;11017;53.552;9.910;2023-05-14T15:11:13;29.00;54.20
21712;DHT22;11017;53.552;9.910;2023-05-14T15:13:40;28.80;54.80
21712;DHT22;11017;53.552;9.910;2023-05-14T15:16:07;27.90;55.30
21712;DHT22;11017;53.552;9.910;2023-05-14T15:18:34;28.70;55.50
21712;DHT22;11017;53.552;9.910;2023-05-14T15:21:01;29.40;54.10
21712;DHT22;11017;53.552;9.910;2023-05-14T15:23:28;29.20;54.00
21712;DHT22;11017;53.552;9.910;2023-05-14T15:25:56;28.20;54.60
21712;DHT22;11017;53.552;9.910;2023-05-14T15:28:23;28.20;54.30
21712;DHT22;11017;53.552;9.910;2023-05-14T15:30:50;28.40;54.20
21712;DHT22;11017;53.552;9.910;2023-05-14T15:33:17;28.60;53.80
21712;DHT22;11017;53.552;9.910;2023-05-14T15:35:44;28.50;53.60